Terminal Aerodrome Forecast
Issued by NWS Memphis, TN

Current Version | Previous Version | Text Only | Print | Product List | Glossary On
Versions: 1 2 3 4 5 6 7 8 9 10 11 12 13 14 15
000
FTUS44 KMEG 261935 AAA
TAFJBR
TAF AMD
KJBR 261935Z 2620/2718 28006KT P6SM SCT020
     FM270100 28007KT P6SM SKC
     FM271300 35010KT P6SM SKC=

USA.gov is the U.S. government's official web portal to all federal, state and local government web resources and services.